Time;durP1;ratioP1;P1;durP2;ratioP2;P2;SDS_P1;SDS_P2;PMS_P1;PMS_P2;Temp;Humidity;BMP_temperature;BMP_pressure;BME280_temperature;BME280_humidity;BME280_pressure;Samples;Min_cycle;Max_cycle;Signal;HPM_P1;HPM_P2
2024/03/25 00:00:50;;;;;;;10.33;5.30;;;5.00;87.40;;;4.20;92.19;96962.09;5036122;28;20492;-81
2024/03/25 00:03:17;;;;;;;4.77;4.07;;;5.00;87.40;;;3.69;91.98;96890.13;5027278;28;20479;-81
2024/03/25 00:05:43;;;;;;;4.90;4.27;;;5.00;87.50;;;4.17;92.56;96963.31;5029157;28;20470;-82
2024/03/25 00:08:11;;;;;;;6.27;4.83;;;5.00;87.50;;;4.09;92.17;96958.16;5048849;28;20552;-82
2024/03/25 00:10:37;;;;;;;5.70;4.50;;;5.00;87.70;;;4.09;91.91;96968.84;5036679;28;20481;-85
2024/03/25 00:13:05;;;;;;;6.43;4.60;;;5.00;87.60;;;4.16;92.57;96964.31;5034828;28;20478;-83
2024/03/25 00:15:31;;;;;;;7.03;4.73;;;5.00;87.70;;;4.27;91.64;96970.13;5034576;28;20494;-83
2024/03/25 00:18:00;;;;;;;6.10;5.13;;;5.10;87.80;;;4.15;92.24;96954.66;5042332;28;20975;-85
2024/03/25 00:20:27;;;;;;;5.00;4.47;;;5.00;87.50;;;4.16;92.86;96952.81;5027420;28;20522;-79
2024/03/25 00:22:54;;;;;;;4.27;3.60;;;5.00;87.80;;;4.22;92.20;96955.53;5041748;28;20492;-83
2024/03/25 00:25:21;;;;;;;5.33;4.83;;;5.00;87.80;;;3.59;91.81;96863.00;5038093;28;20561;-85
2024/03/25 00:27:50;;;;;;;5.50;4.20;;;5.10;87.50;;;4.18;91.18;96954.28;5024873;28;21052;-84
2024/03/25 00:30:17;;;;;;;4.73;4.10;;;5.10;87.20;;;4.14;91.36;96944.19;5020966;28;20520;-82
2024/03/25 00:32:45;;;;;;;6.67;4.77;;;5.10;87.10;;;4.24;90.95;96960.66;5033322;28;20481;-81
2024/03/25 00:35:12;;;;;;;7.10;4.53;;;5.10;87.20;;;4.22;91.03;96954.69;5038839;28;20563;-81
2024/03/25 00:37:40;;;;;;;7.30;5.10;;;5.10;87.10;;;3.95;91.88;96914.50;5029881;28;20482;-83
2024/03/25 00:40:08;;;;;;;6.30;5.17;;;5.10;87.10;;;3.78;90.35;96881.97;5036828;28;20485;-82
2024/03/25 00:42:36;;;;;;;5.20;4.00;;;5.10;86.90;;;4.35;90.77;96957.41;5037836;28;20477;-83
2024/03/25 00:45:05;;;;;;;5.73;4.20;;;5.20;86.70;;;4.28;91.13;96950.38;5039928;28;20500;-78
2024/03/25 00:47:32;;;;;;;6.30;4.53;;;5.10;86.70;;;4.30;90.81;96962.53;5033115;28;20563;-81
2024/03/25 00:49:59;;;;;;;5.20;4.00;;;5.20;86.50;;;4.29;90.33;96957.38;5030170;28;20470;-81
2024/03/25 00:52:28;;;;;;;5.10;4.60;;;5.20;86.50;;;4.28;89.80;96951.22;5030003;28;21297;-80
2024/03/25 00:54:54;;;;;;;4.80;4.30;;;5.20;86.30;;;4.30;89.65;96961.69;5030665;28;20852;-80
2024/03/25 00:57:22;;;;;;;6.57;5.13;;;5.20;86.00;;;4.35;89.34;96954.72;5036453;28;20633;-80
2024/03/25 00:59:48;;;;;;;6.67;4.70;;;5.20;85.60;;;4.30;89.10;96961.69;5026151;28;20518;-80
2024/03/25 01:02:16;;;;;;;6.43;4.57;;;5.20;85.70;;;4.41;88.52;96963.78;5035764;28;20507;-78
2024/03/25 01:04:44;;;;;;;5.27;4.77;;;5.20;85.30;;;4.38;88.66;96959.66;5028199;28;20490;-80
2024/03/25 01:07:11;;;;;;;6.43;4.73;;;5.20;85.00;;;3.93;87.90;96896.00;5050129;28;20507;-80
2024/03/25 01:09:38;;;;;;;6.37;4.40;;;5.20;85.00;;;4.38;88.20;96966.88;5050560;28;20493;-82
2024/03/25 01:12:06;;;;;;;6.47;4.93;;;5.20;85.00;;;4.42;88.11;96962.78;5051332;28;20474;-81
2024/03/25 01:14:33;;;;;;;7.33;4.63;;;5.30;84.90;;;4.47;87.69;96968.31;5064943;28;21208;-78
2024/03/25 01:17:00;;;;;;;6.37;4.33;;;5.30;84.60;;;4.38;87.49;96966.88;5043112;28;20591;-83
2024/03/25 01:19:26;;;;;;;7.00;4.47;;;5.20;84.40;;;4.44;87.04;96955.38;5047665;28;20536;-82
2024/03/25 01:21:54;;;;;;;5.13;4.50;;;5.30;84.40;;;4.39;86.97;96963.97;5031519;28;20503;-84
2024/03/25 01:24:20;;;;;;;8.23;5.27;;;5.30;84.10;;;4.33;87.27;96958.66;5033946;28;20527;-80
2024/03/25 01:26:51;;;;;;;7.87;4.87;;;5.20;84.20;;;4.45;86.87;96962.34;5034985;28;20489;-83
2024/03/25 01:29:18;;;;;;;7.90;5.00;;;5.30;84.30;;;3.99;86.02;96897.03;5039818;28;20468;-82
2024/03/25 01:31:46;;;;;;;4.60;4.10;;;5.30;83.60;;;4.44;85.93;96966.06;5061189;28;20483;-86
2024/03/25 01:34:13;;;;;;;8.17;4.77;;;5.30;83.60;;;4.42;86.22;96962.78;5045895;28;20487;-86
2024/03/25 01:36:40;;;;;;;6.53;3.80;;;5.30;83.60;;;4.44;85.14;96966.06;5040987;28;20485;-84
2024/03/25 01:39:08;;;;;;;5.13;4.53;;;5.30;83.10;;;3.93;85.50;96901.34;5044053;28;21126;-83
2024/03/25 01:41:35;;;;;;;6.33;4.40;;;5.30;83.00;;;4.43;84.88;96958.25;5042990;28;20502;-83
2024/03/25 01:44:03;;;;;;;6.10;4.33;;;5.30;83.20;;;4.28;85.88;96945.03;5034440;28;20478;-82
2024/03/25 01:46:31;;;;;;;5.83;4.50;;;5.20;83.20;;;4.34;84.97;96957.63;5046717;28;20499;-80
2024/03/25 01:48:58;;;;;;;4.57;3.93;;;5.30;82.80;;;4.51;84.56;96966.91;5061921;28;20538;-81
2024/03/25 01:51:26;;;;;;;5.07;4.57;;;5.30;82.90;;;3.87;84.71;96875.44;5051061;28;20508;-85
2024/03/25 01:53:55;;;;;;;5.30;4.00;;;5.30;82.70;;;4.32;84.88;96951.63;5043442;28;20473;-81
2024/03/25 01:56:25;;;;;;;9.33;4.93;;;5.30;82.70;;;4.50;84.51;96970.63;5022720;28;21015;-83
2024/03/25 01:58:51;;;;;;;6.20;4.13;;;5.30;82.60;;;4.39;84.69;96957.81;5031242;28;20482;-81
2024/03/25 02:01:22;;;;;;;5.03;4.20;;;5.30;82.50;;;3.97;84.20;96905.25;5031060;28;20478;-84
2024/03/25 02:03:48;;;;;;;5.00;4.03;;;5.20;82.20;;;4.36;84.41;96964.41;5038018;28;20530;-83
2024/03/25 02:06:18;;;;;;;4.17;3.77;;;5.20;82.20;;;4.33;84.42;96967.47;5052969;28;20482;-79
2024/03/25 02:08:45;;;;;;;5.83;4.70;;;5.20;82.30;;;4.35;84.38;96964.63;5051341;28;20467;-82
2024/03/25 02:11:13;;;;;;;5.27;4.33;;;5.20;82.30;;;4.27;85.34;96956.75;5039040;28;20549;-83
2024/03/25 02:13:41;;;;;;;6.27;4.80;;;5.10;82.40;;;4.22;84.70;96963.53;5043432;28;20562;-85
2024/03/25 02:16:09;;;;;;;6.43;4.47;;;5.10;82.40;;;4.42;83.68;96964.63;5019754;28;20500;-81
2024/03/25 02:18:40;;;;;;;7.23;4.43;;;5.20;82.10;;;4.39;84.10;96965.84;5041706;28;20553;-84
2024/03/25 02:21:13;;;;;;;5.63;4.33;;;5.20;82.10;;;4.43;84.37;96975.13;5018804;28;20569;-83
2024/03/25 02:23:42;;;;;;;7.40;4.67;;;5.20;82.30;;;4.41;84.37;96963.00;5027379;28;20480;-81
2024/03/25 02:26:11;;;;;;;6.90;4.47;;;5.20;82.30;;;4.31;83.87;96974.03;5039732;28;20484;-82
2024/03/25 02:28:37;;;;;;;6.10;4.20;;;5.20;81.90;;;4.38;83.33;96972.22;5043656;28;20582;-84
2024/03/25 02:31:05;;;;;;;5.97;3.70;;;5.20;81.80;;;4.41;83.43;96971.81;5046229;28;20487;-83
2024/03/25 02:33:31;;;;;;;8.73;3.93;;;5.20;81.70;;;4.36;82.92;96975.09;5044514;28;20485;-85
2024/03/25 02:35:59;;;;;;;9.33;3.80;;;5.20;81.70;;;4.40;82.48;96972.84;5027771;28;20494;-82
2024/03/25 02:38:26;;;;;;;5.63;4.20;;;5.30;81.20;;;4.44;82.54;96975.94;5040835;28;20579;-81
2024/03/25 02:40:53;;;;;;;4.20;3.60;;;5.30;81.10;;;4.55;81.96;96972.69;5039710;28;20494;-85
2024/03/25 02:43:22;;;;;;;5.73;4.30;;;5.30;81.20;;;4.43;82.58;96974.31;5041192;28;20461;-84
2024/03/25 02:45:49;;;;;;;7.70;4.40;;;5.30;81.10;;;4.36;82.99;96958.25;5039264;28;21288;-85
2024/03/25 02:48:16;;;;;;;7.83;4.90;;;5.30;81.30;;;4.49;82.59;96982.34;5048577;28;20494;-83
2024/03/25 02:50:43;;;;;;;5.10;4.47;;;5.30;81.40;;;4.55;82.65;96978.03;5047047;28;20867;-83
2024/03/25 02:53:11;;;;;;;5.10;4.47;;;5.30;81.20;;;4.12;82.54;96912.28;5045596;28;21013;-83
2024/03/25 02:55:38;;;;;;;4.57;4.13;;;5.30;81.30;;;4.47;83.76;96981.69;5038486;28;20957;-85
2024/03/25 02:58:05;;;;;;;7.50;4.93;;;5.30;81.60;;;4.50;83.45;96994.69;5048104;28;20536;-84
2024/03/25 03:00:33;;;;;;;6.23;4.63;;;5.30;81.70;;;4.50;83.46;96970.63;5042539;28;20492;-84
2024/03/25 03:02:59;;;;;;;5.53;5.00;;;5.30;81.80;;;4.46;84.12;96973.91;5025905;28;20705;-82
2024/03/25 03:05:27;;;;;;;11.97;4.53;;;5.30;81.90;;;4.30;84.40;96959.88;5064608;28;20573;-81
2024/03/25 03:07:54;;;;;;;9.10;4.97;;;5.20;81.80;;;4.37;84.40;96959.88;5049462;28;20587;-84
2024/03/25 03:10:21;;;;;;;5.87;4.07;;;5.20;81.70;;;4.01;83.82;96921.72;5047585;28;20561;-82
2024/03/25 03:12:49;;;;;;;7.23;4.73;;;5.20;81.90;;;4.30;84.57;96969.72;5039807;28;20893;-83
2024/03/25 03:15:17;;;;;;;6.87;4.10;;;5.20;81.90;;;4.34;84.69;96976.34;5047197;28;20581;-81
2024/03/25 03:17:45;;;;;;;6.00;5.10;;;5.20;82.00;;;4.23;84.16;96946.47;5047355;28;20467;-83
2024/03/25 03:20:12;;;;;;;5.20;3.90;;;5.20;82.10;;;4.38;84.02;96980.25;5064309;28;20470;-80
2024/03/25 03:22:39;;;;;;;5.73;4.90;;;5.20;81.70;;;4.46;84.03;96992.63;5063247;28;20509;-80
2024/03/25 03:25:07;;;;;;;5.07;4.30;;;5.20;82.00;;;4.33;84.92;96974.69;5062732;28;20462;-78
2024/03/25 03:27:34;;;;;;;6.87;5.10;;;5.20;82.10;;;4.49;84.36;96987.69;5062580;28;20479;-78
2024/03/25 03:30:01;;;;;;;7.33;5.50;;;5.20;82.30;;;4.29;84.40;96974.25;5062344;28;20482;-79
2024/03/25 03:32:27;;;;;;;5.40;4.90;;;5.20;82.10;;;4.31;84.77;96990.94;5078798;28;20967;-82
2024/03/25 03:34:56;;;;;;;6.17;5.57;;;5.20;82.20;;;4.30;85.37;96999.13;5053822;28;20904;-82
2024/03/25 03:37:22;;;;;;;6.50;4.80;;;5.20;82.30;;;4.31;85.46;97004.28;5044042;28;20481;-81
2024/03/25 03:39:49;;;;;;;7.87;5.37;;;5.10;82.40;;;4.21;84.93;96988.63;5047417;28;20474;-82
2024/03/25 03:42:16;;;;;;;7.70;5.73;;;5.10;82.40;;;4.21;85.81;96993.97;5060768;28;20470;-82
2024/03/25 03:44:43;;;;;;;6.93;5.20;;;5.00;82.70;;;4.09;85.96;97001.75;5035113;28;20484;-83
2024/03/25 03:47:09;;;;;;;7.07;5.93;;;5.00;82.80;;;4.15;87.26;97008.13;5035512;28;20490;-81
2024/03/25 03:49:37;;;;;;;8.23;6.07;;;4.90;83.20;;;3.54;86.82;96927.69;5045236;28;20482;-80
2024/03/25 03:52:05;;;;;;;11.27;6.73;;;4.90;83.20;;;4.14;86.78;96998.47;5041955;28;20481;-81
2024/03/25 03:54:33;;;;;;;8.43;6.10;;;4.90;83.30;;;4.01;86.82;97003.75;5044356;28;20552;-82
2024/03/25 03:56:59;;;;;;;9.93;6.90;;;4.90;83.20;;;4.09;86.82;97011.63;5037575;28;20481;-80
2024/03/25 03:59:27;;;;;;;8.20;6.50;;;4.90;83.60;;;3.96;87.76;97009.72;5036652;28;20567;-81
2024/03/25 04:01:54;;;;;;;8.20;6.10;;;4.80;83.60;;;3.99;87.66;97016.47;5037907;28;20498;-79
2024/03/25 04:04:21;;;;;;;7.50;6.80;;;4.80;83.80;;;4.02;87.67;97034.78;5030852;28;20466;-81
2024/03/25 04:06:49;;;;;;;7.57;6.60;;;4.80;83.70;;;3.95;88.56;97037.47;5034151;28;20511;-82
2024/03/25 04:09:17;;;;;;;9.57;6.23;;;4.80;83.80;;;3.81;88.21;97021.34;5047837;28;20476;-81
2024/03/25 04:11:44;;;;;;;11.60;7.03;;;4.70;84.30;;;3.74;89.28;97035.69;5034803;28;20489;-81
2024/03/25 04:14:12;;;;;;;10.00;6.13;;;4.60;84.40;;;3.71;89.43;97025.38;5031886;28;20475;-82
2024/03/25 04:16:38;;;;;;;8.50;6.13;;;4.60;85.00;;;3.81;90.01;97036.53;5034526;28;20483;-82
2024/03/25 04:19:06;;;;;;;10.60;8.83;;;4.60;85.30;;;3.61;90.00;97025.72;5038062;28;20476;-84
2024/03/25 04:21:32;;;;;;;14.20;9.67;;;4.60;85.30;;;3.73;90.25;97039.38;5039367;28;20482;-81
2024/03/25 04:23:59;;;;;;;7.23;6.40;;;4.50;85.60;;;3.83;89.23;97032.66;5055352;28;20864;-83
2024/03/25 04:26:27;;;;;;;9.40;6.77;;;4.60;85.70;;;3.76;89.71;97047.00;5039487;28;20486;-83
2024/03/25 04:28:54;;;;;;;8.30;6.80;;;4.60;85.40;;;3.77;89.77;97046.78;5049519;28;20480;-86
2024/03/25 04:31:21;;;;;;;8.93;7.13;;;4.60;85.40;;;3.80;88.91;97040.25;5049117;28;21004;-82
2024/03/25 04:33:50;;;;;;;11.53;7.00;;;4.60;85.30;;;3.71;89.58;97047.59;5039097;28;20486;-86
2024/03/25 04:36:17;;;;;;;8.67;6.80;;;4.60;85.10;;;3.60;89.22;97040.94;5046289;28;20497;-81
